Estación Meteorológica Peña el Pijo (Robertgarden) [ 11/16/19 02:31:05 CET ]

Fecha Hora Presion(HPa) Temp (°C) Humedad % Rocio (°C) Viento ( m/s) Direccion Lluvia 1Hora(mm) Lluvia 24H(mm) LLuvia Total(mm)
2019-Jul-24 01:01:50 1013.200 21.1 40 7.0         344.18
2019-Jul-24 02:01:51 1012.900 18.6 45 6.4         344.18
2019-Jul-24 03:01:46 1012.700 16.6 50 6.1         344.18
2019-Jul-24 04:01:48 1012.400 15.4 54 6.1         344.18
2019-Jul-24 05:01:45 1012.000 14.4 57 6.0         344.18
2019-Jul-24 06:01:45 1012.000 13.9 58 5.8         344.18
2019-Jul-24 07:01:52 1011.900 13.1 62 5.9         344.18
2019-Jul-24 08:01:43 1012.100 13.9 64 7.2         344.18
2019-Jul-24 09:01:58 1011.900 20.0 52 9.8         344.18
2019-Jul-24 10:01:53 1011.800 25.9 35 9.2         344.18
2019-Jul-24 11:01:54 1011.800 30.6 27 9.3         344.18
2019-Jul-24 12:01:47 1011.900 31.3 25 8.7 1.5 WNW     344.18
2019-Jul-24 13:01:55 1011.900 31.8 24 8.5         344.18
2019-Jul-24 14:01:57 1011.700 33.8 22 9.0         344.18
2019-Jul-24 15:01:44 1011.500 32.5 21 7.3 1.2 WSW     344.18
2019-Jul-24 16:01:54 1011.400 31.8 24 8.5 1.1 W     344.18
2019-Jul-24 17:01:45 1011.200 33.6 21 8.2         344.18
2019-Jul-24 18:01:43 1010.800 33.7 23 9.5 2.1 W     344.18
2019-Jul-24 19:01:48 1010.600 32.4 24 9.0         344.18
2019-Jul-24 20:01:47 1010.600 30.4 26 8.5         344.18
2019-Jul-24 21:01:40 1011.000 28.1 29 8.3         344.18
2019-Jul-24 22:01:39 1011.100 25.1 35 8.5         344.18
2019-Jul-24 23:01:40 1011.400 22.3 40 8.1         344.18

Temperatura Máxima:33°    Temperatura Mínima:13°
Presión Máxima:1013.200 Hpa    Presión Mínima:1010.600 Hpa


Volver